Provincetown III — WDB8185 — position and weather

sailwx.info

Track history (hours):
 
Tides and Currents Weather Stations Pressure Air Temp Water Temp Dewpoint Dewpoint Depression Visibility Wind Speed Wind Dir Waves Ship Positions

Provincetown III

Owner: MYSTIC FERRY LEASING LLC, BOSTON, MA. More information available from US FCC via Universal Licensing System and Coast Guard Vessel Documentation Center.

Last reported at 2016-Jul-26 15:33 UTC. Time now 2016-Jul-26 16:01 UTC.
Position N 42°15' W 070°42'.

Length 30 m; draft 2 m.

Type: Passenger vessel. MMSI: 366954420.

Date/timePositionNaut miles runAvg speedWind from/ knotsBaromVisibWave heightAir tempDewpointWater temp
2016-Jul-26 15:33N 42°15' W 070°42'2 0.9
2016-Jul-26 13:05N 42°16' W 070°44'1527.5
2016-Jul-26 12:33N 42°21' W 071°02'0 0.0
2016-Jul-26 01:19N 42°21' W 071°02'1823.4
2016-Jul-26 00:34N 42°14' W 070°40'2 0.8
2016-Jul-25 22:16N 42°13' W 070°38'2027.3
2016-Jul-25 21:33N 42°21' W 071°02'8 8.2
2016-Jul-25 20:34N 42°19' W 070°52'3 1.1
2016-Jul-25 17:30N 42°17' W 070°48'1212.4
2016-Jul-25 16:33N 42°21' W 071°03'0 0.0
2016-Jul-24 20:32N 42°21' W 071°02'2121.5
2016-Jul-24 19:33N 42°12' W 070°37'0 0.2
2016-Jul-24 17:13N 42°12' W 070°36'1826.9
2016-Jul-24 16:34N 42°20' W 070°58'1 0.1
2016-Jul-24 00:33N 42°20' W 070°56'5 0.6
2016-Jul-23 16:34N 42°21' W 071°02'7 7.3
2016-Jul-23 15:33N 42°19' W 070°53'1 0.3
2016-Jul-23 12:33N 42°19' W 070°51'9 0.8
2016-Jul-23 01:20N 42°21' W 071°02'1113.4
2016-Jul-23 00:33N 42°18' W 070°49'2 0.5
2016-Jul-22 21:33N 42°17' W 070°47'1212.1
2016-Jul-22 20:33N 42°21' W 071°02'0 0.0
2016-Jul-21 19:33N 42°21' W 071°02'5 5.3
2016-Jul-21 18:34N 42°19' W 070°56'1 1.1
2016-Jul-21 17:34N 42°18' W 070°55'0 0.0
2016-Jul-21 16:33N 42°18' W 070°55'0 0.0
2016-Jul-21 15:34N 42°18' W 070°55'4 3.9
2016-Jul-21 14:33N 42°20' W 070°60'2 2.2
2016-Jul-21 13:33N 42°21' W 071°02'0 0.0
2016-Jul-21 05:27N 42°21' W 071°02'  
2016-Jul-18 12:29N 41°19' W 071°31'4 3.1
2016-Jul-18 11:21N 41°23' W 071°31'59 4.5
2016-Jul-17 22:23N 42°04' W 070°36'2226.2
2016-Jul-17 21:34N 42°20' W 070°56'5 5.0
2016-Jul-17 20:34N 42°21' W 071°03'2322.6
2016-Jul-17 19:34N 42°12' W 070°35'11 4.5
2016-Jul-17 17:12N 42°17' W 070°47'1218.7
2016-Jul-17 16:34N 42°21' W 071°02'8 8.0
2016-Jul-17 15:34N 42°19' W 070°52'2 0.8
2016-Jul-17 12:34N 42°19' W 070°55'6 0.3
2016-Jul-16 20:32N 42°21' W 071°02'1818.8
2016-Jul-16 19:33N 42°14' W 070°39'18 6.1
2016-Jul-16 16:33N 42°21' W 071°02'8 8.5
2016-Jul-16 15:34N 42°19' W 070°51'  
Track history (hours):
 
Tides and Currents Weather Stations Pressure Air Temp Water Temp Dewpoint Dewpoint Depression Visibility Wind Speed Wind Dir Waves Ship Positions

Provincetown III

Owner: MYSTIC FERRY LEASING LLC, BOSTON, MA. More information available from US FCC via Universal Licensing System and Coast Guard Vessel Documentation Center.

Last reported at 2016-Jul-26 15:33 UTC. Time now 2016-Jul-26 16:01 UTC.
Position N 42°15' W 070°42'.

Length 30 m; draft 2 m.

Type: Passenger vessel. MMSI: 366954420.

Date/timePositionNaut miles runAvg speedWind from/ knotsBaromVisibWave heightAir tempDewpointWater temp
2016-Jul-26 15:33N 42°15' W 070°42'2 0.9
2016-Jul-26 13:05N 42°16' W 070°44'1527.5
2016-Jul-26 12:33N 42°21' W 071°02'0 0.0
2016-Jul-26 01:19N 42°21' W 071°02'1823.4
2016-Jul-26 00:34N 42°14' W 070°40'2 0.8
2016-Jul-25 22:16N 42°13' W 070°38'2027.3
2016-Jul-25 21:33N 42°21' W 071°02'8 8.2
2016-Jul-25 20:34N 42°19' W 070°52'3 1.1
2016-Jul-25 17:30N 42°17' W 070°48'1212.4
2016-Jul-25 16:33N 42°21' W 071°03'0 0.0
2016-Jul-24 20:32N 42°21' W 071°02'2121.5
2016-Jul-24 19:33N 42°12' W 070°37'0 0.2
2016-Jul-24 17:13N 42°12' W 070°36'1826.9
2016-Jul-24 16:34N 42°20' W 070°58'1 0.1
2016-Jul-24 00:33N 42°20' W 070°56'5 0.6
2016-Jul-23 16:34N 42°21' W 071°02'7 7.3
2016-Jul-23 15:33N 42°19' W 070°53'1 0.3
2016-Jul-23 12:33N 42°19' W 070°51'9 0.8
2016-Jul-23 01:20N 42°21' W 071°02'1113.4
2016-Jul-23 00:33N 42°18' W 070°49'2 0.5
2016-Jul-22 21:33N 42°17' W 070°47'1212.1
2016-Jul-22 20:33N 42°21' W 071°02'0 0.0
2016-Jul-21 19:33N 42°21' W 071°02'5 5.3
2016-Jul-21 18:34N 42°19' W 070°56'1 1.1
2016-Jul-21 17:34N 42°18' W 070°55'0 0.0
2016-Jul-21 16:33N 42°18' W 070°55'0 0.0
2016-Jul-21 15:34N 42°18' W 070°55'4 3.9
2016-Jul-21 14:33N 42°20' W 070°60'2 2.2
2016-Jul-21 13:33N 42°21' W 071°02'0 0.0
2016-Jul-21 05:27N 42°21' W 071°02'  
2016-Jul-18 12:29N 41°19' W 071°31'4 3.1
2016-Jul-18 11:21N 41°23' W 071°31'59 4.5
2016-Jul-17 22:23N 42°04' W 070°36'2226.2
2016-Jul-17 21:34N 42°20' W 070°56'5 5.0
2016-Jul-17 20:34N 42°21' W 071°03'2322.6
2016-Jul-17 19:34N 42°12' W 070°35'11 4.5
2016-Jul-17 17:12N 42°17' W 070°47'1218.7
2016-Jul-17 16:34N 42°21' W 071°02'8 8.0
2016-Jul-17 15:34N 42°19' W 070°52'2 0.8
2016-Jul-17 12:34N 42°19' W 070°55'6 0.3
2016-Jul-16 20:32N 42°21' W 071°02'1818.8
2016-Jul-16 19:33N 42°14' W 070°39'18 6.1
2016-Jul-16 16:33N 42°21' W 071°02'8 8.5
2016-Jul-16 15:34N 42°19' W 070°51'  

Dump ship's entire track history